Oban — PDWJ — position and weather

sailwx.info

Track history (hours):
 
Tides and Currents Weather Stations Pressure Air Temp Water Temp Dewpoint Dewpoint Depression Visibility Wind Speed Wind Dir Waves Ship Positions

Oban

Last reported at 2019-Aug-22 09:30 UTC. Time now 2019-Aug-22 09:50 UTC.
Position N 54°40' E 010°17'.

Length 39 m; draft 2.8 m.

Type: Sailing vessel. MMSI: 246085000.

Date/timePositionNaut miles runAvg speedWind from/ knotsBaromVisibWave heightAir tempDewpointWater temp
2019-Aug-22 09:30N 54°40' E 010°17'3 5.4
2019-Aug-22 09:00N 54°41' E 010°21'3 6.0
2019-Aug-22 08:30N 54°43' E 010°26'3 6.0
2019-Aug-22 08:00N 54°44' E 010°30'3 6.0
2019-Aug-22 07:30N 54°45' E 010°35'3 5.5
2019-Aug-22 07:00N 54°45' E 010°40'0 0.5
2019-Aug-22 06:30N 54°45' E 010°40'0 0.0
2019-Aug-22 06:00N 54°45' E 010°40'0 0.0
2019-Aug-22 05:30N 54°45' E 010°40'0 0.0
2019-Aug-22 05:00N 54°45' E 010°40'0 0.0
2019-Aug-22 04:30N 54°45' E 010°40'0 0.0
2019-Aug-22 04:00N 54°45' E 010°40'0 0.0
2019-Aug-22 03:30N 54°45' E 010°40'0 0.0
2019-Aug-22 03:00N 54°45' E 010°40'0 0.0
2019-Aug-22 02:30N 54°45' E 010°40'0 0.0
2019-Aug-22 02:00N 54°45' E 010°40'0 0.0
2019-Aug-22 01:30N 54°45' E 010°40'0 0.0
2019-Aug-22 01:00N 54°45' E 010°40'0 0.0
2019-Aug-22 00:30N 54°45' E 010°40'0 0.0
2019-Aug-22 00:00N 54°45' E 010°40'0 0.0
2019-Aug-21 23:30N 54°45' E 010°40'0 0.0
2019-Aug-21 23:00N 54°45' E 010°40'0 0.0
2019-Aug-21 22:30N 54°45' E 010°40'0 0.0
2019-Aug-21 22:00N 54°45' E 010°40'0 0.0
2019-Aug-21 21:30N 54°45' E 010°40'0 0.0
2019-Aug-21 21:00N 54°45' E 010°40'0 0.0
2019-Aug-21 20:30N 54°45' E 010°40'0 0.0
2019-Aug-21 20:00N 54°45' E 010°40'0 0.0
2019-Aug-21 19:30N 54°45' E 010°40'0 0.0
2019-Aug-21 19:00N 54°45' E 010°40'0 0.0
2019-Aug-21 18:30N 54°45' E 010°40'0 0.0
2019-Aug-21 18:00N 54°45' E 010°40'0 0.0
2019-Aug-21 17:30N 54°45' E 010°40'0 0.0
2019-Aug-21 17:00N 54°45' E 010°40'0 0.0
2019-Aug-21 16:30N 54°45' E 010°40'0 0.0
2019-Aug-21 16:00N 54°45' E 010°40'0 0.0
2019-Aug-21 15:30N 54°45' E 010°40'1 1.4
2019-Aug-21 15:00N 54°45' E 010°39'2 3.3
2019-Aug-21 14:30N 54°44' E 010°40'3 5.2
2019-Aug-21 14:00N 54°41' E 010°42'1 1.7
2019-Aug-21 13:30N 54°41' E 010°43'1 2.6
2019-Aug-21 13:00N 54°42' E 010°41'2 4.5
2019-Aug-21 12:30N 54°43' E 010°39'2 4.0
2019-Aug-21 12:00N 54°45' E 010°37'3 5.1
2019-Aug-21 11:30N 54°47' E 010°35'3 5.4
2019-Aug-21 11:00N 54°50' E 010°33'2 4.1
2019-Aug-21 10:30N 54°51' E 010°31'2 3.8
2019-Aug-21 10:00N 54°53' E 010°34'2 3.1
2019-Aug-21 09:30N 54°54' E 010°33'2 3.6
2019-Aug-21 09:00N 54°55' E 010°30'2 3.3
2019-Aug-21 08:22N 54°57' E 010°28'2 4.4
2019-Aug-21 07:54N 54°55' E 010°26'2 3.5
2019-Aug-21 07:25N 54°53' E 010°25'0 0.0
2019-Aug-21 06:59N 54°53' E 010°25'0 0.0
2019-Aug-21 06:30N 54°53' E 010°25'0 0.0
2019-Aug-21 05:55N 54°53' E 010°25'0 0.0
2019-Aug-21 05:14N 54°53' E 010°25'0 0.0
2019-Aug-21 05:00N 54°53' E 010°25'0 0.0
2019-Aug-21 04:27N 54°53' E 010°25'0 0.0
2019-Aug-21 04:00N 54°53' E 010°25'0 0.0
2019-Aug-21 03:30N 54°53' E 010°25'0 0.0
2019-Aug-21 03:00N 54°53' E 010°25'0 0.0
2019-Aug-21 02:30N 54°53' E 010°25'0 0.0
2019-Aug-21 02:00N 54°53' E 010°25'0 0.0
2019-Aug-21 01:30N 54°53' E 010°25'0 0.0
2019-Aug-21 00:57N 54°53' E 010°25'0 0.0
2019-Aug-21 00:30N 54°53' E 010°25'0 0.0
2019-Aug-20 23:59N 54°53' E 010°25'0 0.0
2019-Aug-20 23:27N 54°53' E 010°25'0 0.0
2019-Aug-20 22:56N 54°53' E 010°25'0 0.0
2019-Aug-20 22:28N 54°53' E 010°25'0 0.0
2019-Aug-20 21:59N 54°53' E 010°25'0 0.0
2019-Aug-20 21:08N 54°53' E 010°25'0 0.0
2019-Aug-20 20:59N 54°53' E 010°25'0 0.0
2019-Aug-20 20:30N 54°53' E 010°25'0 0.0
2019-Aug-20 20:00N 54°53' E 010°25'0 0.0
2019-Aug-20 19:26N 54°53' E 010°25'0 0.0
2019-Aug-20 18:59N 54°53' E 010°25'0 0.0
2019-Aug-20 18:17N 54°53' E 010°25'0 0.0
2019-Aug-20 17:25N 54°53' E 010°25'0 0.0
2019-Aug-20 16:40N 54°53' E 010°25'0 0.0
2019-Aug-20 15:28N 54°53' E 010°25'1 2.3
2019-Aug-20 15:00N 54°55' E 010°25'3 5.5
2019-Aug-20 14:27N 54°56' E 010°21'16 0.6
2019-Aug-19 11:34N 54°46' E 009°59'1 8.9
2019-Aug-19 11:27N 54°45' E 010°00'4 8.1
2019-Aug-19 11:00N 54°42' E 010°03'4 7.5
2019-Aug-19 10:30N 54°38' E 010°04'4 7.7
2019-Aug-19 10:00N 54°35' E 010°06'4 8.5
2019-Aug-19 09:30N 54°31' E 010°09'4 7.8
2019-Aug-19 09:00N 54°28' E 010°13'3 5.6
2019-Aug-19 08:30N 54°25' E 010°13'2 4.8
2019-Aug-19 08:00N 54°23' E 010°11'2 3.5
2019-Aug-19 07:30N 54°21' E 010°10'1 1.7
2019-Aug-19 07:00N 54°20' E 010°09'0 0.0
2019-Aug-19 06:30N 54°20' E 010°09'0 0.0
2019-Aug-19 06:00N 54°20' E 010°09'0 0.0
2019-Aug-19 05:30N 54°20' E 010°09'0 0.0
2019-Aug-19 05:00N 54°20' E 010°09'0 0.0
2019-Aug-19 04:30N 54°20' E 010°09'0 0.0
2019-Aug-19 04:00N 54°20' E 010°09'0 0.0
2019-Aug-19 03:30N 54°20' E 010°09'0 0.0
2019-Aug-19 03:00N 54°20' E 010°09'0 0.0
2019-Aug-19 02:30N 54°20' E 010°09'0 0.0
2019-Aug-19 02:00N 54°20' E 010°09'0 0.0
2019-Aug-19 01:30N 54°20' E 010°09'0 0.0
2019-Aug-19 01:00N 54°20' E 010°09'0 0.0
2019-Aug-19 00:30N 54°20' E 010°09'0 0.0
2019-Aug-19 00:00N 54°20' E 010°09'0 0.0
2019-Aug-18 23:30N 54°20' E 010°09'0 0.0
2019-Aug-18 23:00N 54°20' E 010°09'0 0.0
2019-Aug-18 22:30N 54°20' E 010°09'0 0.0
2019-Aug-18 22:00N 54°20' E 010°09'0 0.0
2019-Aug-18 21:30N 54°20' E 010°09'0 0.0
2019-Aug-18 21:00N 54°20' E 010°09'0 0.0
2019-Aug-18 20:30N 54°20' E 010°09'0 0.0
2019-Aug-18 20:00N 54°20' E 010°09'0 0.0
2019-Aug-18 19:30N 54°20' E 010°09'0 0.0
2019-Aug-18 19:00N 54°20' E 010°09'0 0.0
2019-Aug-18 18:30N 54°20' E 010°09'0 0.0
2019-Aug-18 18:00N 54°20' E 010°09'0 0.0
2019-Aug-18 17:30N 54°20' E 010°09'0 0.0
2019-Aug-18 17:00N 54°20' E 010°09'0 0.0
2019-Aug-18 16:30N 54°20' E 010°09'0 0.0
2019-Aug-18 16:00N 54°20' E 010°09'0 0.0
2019-Aug-18 15:30N 54°20' E 010°09'0 0.0
2019-Aug-18 15:00N 54°20' E 010°09'0 0.0
2019-Aug-18 14:30N 54°20' E 010°09'0 0.0
2019-Aug-18 14:00N 54°20' E 010°09'0 0.0
2019-Aug-18 13:30N 54°20' E 010°09'0 0.0
2019-Aug-18 13:00N 54°20' E 010°09'2 4.6
2019-Aug-18 12:30N 54°22' E 010°11'1 2.8
2019-Aug-18 12:00N 54°24' E 010°12'2 3.6
2019-Aug-18 11:30N 54°25' E 010°13'2 4.3
2019-Aug-18 11:00N 54°28' E 010°13'2 4.8
2019-Aug-18 10:30N 54°30' E 010°12'2 4.2
2019-Aug-18 10:00N 54°32' E 010°10'2 3.5
2019-Aug-18 09:30N 54°33' E 010°08'2 4.2
2019-Aug-18 09:00N 54°34' E 010°05'2 3.7
2019-Aug-18 08:30N 54°36' E 010°03'2 4.7
2019-Aug-18 08:00N 54°38' E 010°03'4 4.1
2019-Aug-18 07:00N 54°41' E 009°57'1 2.2
2019-Aug-18 06:29N 54°39' E 009°56'0 0.0
2019-Aug-18 06:00N 54°40' E 009°56'0 0.0
2019-Aug-18 05:30N 54°40' E 009°56'0 0.0
2019-Aug-18 05:00N 54°39' E 009°56'0 0.0
2019-Aug-18 04:30N 54°40' E 009°56'0 0.0
2019-Aug-18 04:00N 54°40' E 009°56'0 0.0
2019-Aug-18 03:29N 54°40' E 009°56'0 0.0
2019-Aug-18 03:00N 54°40' E 009°56'0 0.0
2019-Aug-18 02:30N 54°39' E 009°56'0 0.0
2019-Aug-18 02:00N 54°39' E 009°56'0 0.0
2019-Aug-18 01:30N 54°39' E 009°56'0 0.0
2019-Aug-18 01:00N 54°40' E 009°56'0 0.0
2019-Aug-18 00:30N 54°40' E 009°56'0 0.0
2019-Aug-18 00:00N 54°39' E 009°56'0 0.0
2019-Aug-17 23:30N 54°40' E 009°56'0 0.0
2019-Aug-17 23:00N 54°39' E 009°56'0 0.0
2019-Aug-17 22:30N 54°39' E 009°56'0 0.0
2019-Aug-17 22:00N 54°40' E 009°56'0 0.0
2019-Aug-17 21:30N 54°39' E 009°56'0 0.0
2019-Aug-17 21:00N 54°39' E 009°56'0 0.0
2019-Aug-17 20:29N 54°40' E 009°56'0 0.0
2019-Aug-17 20:00N 54°40' E 009°56'0 0.0
2019-Aug-17 19:30N 54°40' E 009°56'0 0.0
2019-Aug-17 19:00N 54°39' E 009°56'0 0.0
2019-Aug-17 18:30N 54°40' E 009°56'0 0.0
2019-Aug-17 17:29N 54°39' E 009°56'0 0.0
2019-Aug-17 16:59N 54°40' E 009°56'0 0.0
2019-Aug-17 16:30N 54°39' E 009°56'0 0.0
2019-Aug-17 15:59N 54°40' E 009°56'0 0.0
2019-Aug-17 15:28N 54°40' E 009°56'0 0.0
2019-Aug-17 14:57N 54°40' E 009°56'0 0.0
2019-Aug-17 14:30N 54°40' E 009°56'0 0.0
2019-Aug-17 14:00N 54°39' E 009°56'1 2.0
2019-Aug-17 13:30N 54°40' E 009°57'3 5.2
2019-Aug-17 12:56N 54°40' E 010°02'2 4.9
2019-Aug-17 12:30N 54°42' E 010°05'2 4.2
2019-Aug-17 12:00N 54°43' E 010°06'3 4.8
2019-Aug-17 11:20N 54°46' E 010°02'1 1.5
2019-Aug-17 10:44N 54°46' E 010°04'5 5.9
2019-Aug-17 09:53N 54°47' E 010°12'3 6.6
2019-Aug-17 09:30N 54°47' E 010°17'3 6.7
2019-Aug-17 09:00N 54°47' E 010°22'3 6.2
2019-Aug-17 08:30N 54°49' E 010°27'3 6.7
2019-Aug-17 08:00N 54°50' E 010°32'1 2.8
2019-Aug-17 07:30N 54°51' E 010°31'0 0.0
2019-Aug-17 07:00N 54°51' E 010°31'0 0.0
2019-Aug-17 06:30N 54°51' E 010°31'0 0.0
2019-Aug-17 06:00N 54°51' E 010°31'0 0.0
2019-Aug-17 05:30N 54°51' E 010°31'0 0.0
2019-Aug-17 05:00N 54°51' E 010°31'0 0.0
2019-Aug-17 04:29N 54°51' E 010°31'0 0.0
2019-Aug-17 04:00N 54°51' E 010°31'0 0.0
2019-Aug-17 03:30N 54°51' E 010°31'0 0.0
2019-Aug-17 03:00N 54°51' E 010°31'0 0.0
2019-Aug-17 02:30N 54°51' E 010°31'0 0.0
2019-Aug-17 02:00N 54°51' E 010°31'0 0.0
2019-Aug-17 01:30N 54°51' E 010°31'0 0.0
2019-Aug-17 01:00N 54°51' E 010°31'0 0.0
2019-Aug-17 00:30N 54°51' E 010°31'0 0.0
2019-Aug-17 00:00N 54°51' E 010°31'0 0.0
2019-Aug-16 23:30N 54°51' E 010°31'0 0.0
2019-Aug-16 23:00N 54°51' E 010°31'0 0.0
2019-Aug-16 22:30N 54°51' E 010°31'0 0.0
2019-Aug-16 22:00N 54°51' E 010°31'0 0.0
2019-Aug-16 21:30N 54°51' E 010°31'0 0.0
2019-Aug-16 21:00N 54°51' E 010°31'0 0.0
2019-Aug-16 20:30N 54°51' E 010°31'0 0.0
2019-Aug-16 20:00N 54°51' E 010°31'0 0.0
2019-Aug-16 19:30N 54°51' E 010°31'0 0.0
2019-Aug-16 19:00N 54°51' E 010°31'0 0.0
2019-Aug-16 18:30N 54°51' E 010°31'0 0.0
2019-Aug-16 18:00N 54°51' E 010°31'0 0.0
2019-Aug-16 17:30N 54°51' E 010°31'0 0.0
2019-Aug-16 17:00N 54°51' E 010°31'0 0.0
2019-Aug-16 16:30N 54°51' E 010°31'0 0.0
2019-Aug-16 16:00N 54°51' E 010°31'0 0.0
2019-Aug-16 15:30N 54°51' E 010°31'0 0.0
2019-Aug-16 15:00N 54°51' E 010°31'0 0.0
2019-Aug-16 14:30N 54°51' E 010°31'0 0.0
2019-Aug-16 14:00N 54°51' E 010°31'1 2.0
2019-Aug-16 13:30N 54°52' E 010°32'2 3.4
2019-Aug-16 12:59N 54°54' E 010°32'3 6.6
2019-Aug-16 12:29N 54°56' E 010°29'2 4.8
2019-Aug-16 12:00N 54°57' E 010°24'2 3.9
2019-Aug-16 11:30N 54°56' E 010°21'4 4.3
2019-Aug-16 10:37N 54°59' E 010°17'14 0.7
2019-Aug-15 13:36N 54°46' E 010°07'1 6.0
2019-Aug-15 13:30N 54°46' E 010°07'3 6.0
2019-Aug-15 12:59N 54°43' E 010°10'3 5.9
2019-Aug-15 12:30N 54°40' E 010°11'3 6.8
2019-Aug-15 12:00N 54°37' E 010°13'4 7.0
2019-Aug-15 11:29N 54°34' E 010°16'3 7.1
2019-Aug-15 11:00N 54°31' E 010°19'3 5.2
2019-Aug-15 10:30N 54°28' E 010°17'3 5.8
2019-Aug-15 10:00N 54°26' E 010°14'2 4.6
2019-Aug-15 09:30N 54°24' E 010°12'2 3.5
2019-Aug-15 09:00N 54°22' E 010°11'2 3.3
2019-Aug-15 08:30N 54°21' E 010°10'1 1.4
2019-Aug-15 07:56N 54°20' E 010°09'0 0.0
2019-Aug-15 07:23N 54°20' E 010°09'0 0.0
2019-Aug-15 06:53N 54°20' E 010°09'0 0.0
2019-Aug-15 06:26N 54°20' E 010°09'0 0.0
2019-Aug-15 05:56N 54°20' E 010°09'0 0.0
2019-Aug-15 05:26N 54°20' E 010°09'0 0.0
2019-Aug-15 04:59N 54°20' E 010°09'0 0.0
2019-Aug-15 04:29N 54°20' E 010°09'0 0.0
2019-Aug-15 03:59N 54°20' E 010°09'0 0.0
2019-Aug-15 03:26N 54°20' E 010°09'0 0.0
2019-Aug-15 02:59N 54°20' E 010°09'0 0.0
2019-Aug-15 02:29N 54°20' E 010°09'0 0.0
2019-Aug-15 01:59N 54°20' E 010°09'0 0.0
2019-Aug-15 01:29N 54°20' E 010°09'0 0.0
2019-Aug-15 00:59N 54°20' E 010°09'0 0.0
2019-Aug-15 00:29N 54°20' E 010°09'0 0.0
2019-Aug-14 23:59N 54°20' E 010°09'0 0.0
2019-Aug-14 23:29N 54°20' E 010°09'0 0.0
2019-Aug-14 22:59N 54°20' E 010°09'0 0.0
2019-Aug-14 22:29N 54°20' E 010°09'0 0.0
2019-Aug-14 21:59N 54°20' E 010°09'0 0.0
2019-Aug-14 21:29N 54°20' E 010°09'0 0.0
2019-Aug-14 20:59N 54°20' E 010°09'0 0.0
2019-Aug-14 20:29N 54°20' E 010°09'0 0.0
2019-Aug-14 19:59N 54°20' E 010°09'0 0.0
2019-Aug-14 19:29N 54°20' E 010°09'0 0.0
2019-Aug-14 18:59N 54°20' E 010°09'0 0.0
2019-Aug-14 18:26N 54°20' E 010°09'0 0.0
2019-Aug-14 17:59N 54°20' E 010°09'0 0.0
2019-Aug-14 17:28N 54°20' E 010°09'0 0.0
2019-Aug-14 16:58N 54°20' E 010°09'0 0.0
2019-Aug-14 16:28N 54°20' E 010°09'0 0.0
2019-Aug-14 15:58N 54°20' E 010°09'0 0.0
2019-Aug-14 15:28N 54°20' E 010°09'0 0.0
2019-Aug-14 14:58N 54°20' E 010°09'0 0.0
2019-Aug-14 14:28N 54°20' E 010°09'0 0.0
2019-Aug-14 13:58N 54°20' E 010°09'0 0.0
2019-Aug-14 13:25N 54°20' E 010°09'0 0.0
2019-Aug-14 12:58N 54°20' E 010°09'0 0.0
2019-Aug-14 12:28N 54°20' E 010°09'0 0.0
2019-Aug-14 11:58N 54°20' E 010°09'0 0.0
2019-Aug-14 11:28N 54°20' E 010°09'0 0.0
2019-Aug-14 10:58N 54°20' E 010°09'0 0.0
2019-Aug-14 10:28N 54°20' E 010°09'0 0.0
2019-Aug-14 09:58N 54°20' E 010°09'0 0.0
2019-Aug-14 09:28N 54°20' E 010°09'0 0.0
2019-Aug-14 08:58N 54°20' E 010°09'0 0.0
2019-Aug-14 08:28N 54°20' E 010°09'0 0.0
2019-Aug-14 07:58N 54°20' E 010°09'0 0.0
2019-Aug-14 07:28N 54°20' E 010°09'0 0.0
2019-Aug-14 06:58N 54°20' E 010°09'0 0.0
2019-Aug-14 06:28N 54°20' E 010°09'0 0.0
2019-Aug-14 05:58N 54°20' E 010°09'0 0.0
2019-Aug-14 05:28N 54°20' E 010°09'0 0.0
2019-Aug-14 04:58N 54°20' E 010°09'0 0.0
2019-Aug-14 04:28N 54°20' E 010°09'0 0.0
2019-Aug-14 03:58N 54°20' E 010°09'0 0.0
2019-Aug-14 03:28N 54°20' E 010°09'0 0.0
2019-Aug-14 02:58N 54°20' E 010°09'0 0.0
2019-Aug-14 02:28N 54°20' E 010°09'0 0.0
2019-Aug-14 01:58N 54°20' E 010°09'0 0.0
2019-Aug-14 01:28N 54°20' E 010°09'0 0.0
2019-Aug-14 00:58N 54°20' E 010°09'0 0.0
2019-Aug-14 00:28N 54°20' E 010°09'0 0.0
2019-Aug-13 23:58N 54°20' E 010°09'0 0.0
2019-Aug-13 23:28N 54°20' E 010°09'0 0.0
2019-Aug-13 22:58N 54°20' E 010°09'0 0.0
2019-Aug-13 22:28N 54°20' E 010°09'0 0.0
2019-Aug-13 21:58N 54°20' E 010°09'0 0.0
2019-Aug-13 21:28N 54°20' E 010°09'0 0.0
2019-Aug-13 20:58N 54°20' E 010°09'0 0.0
2019-Aug-13 20:28N 54°20' E 010°09'0 0.0
2019-Aug-13 19:58N 54°20' E 010°09'0 0.0
2019-Aug-13 19:25N 54°20' E 010°09'0 0.0
2019-Aug-13 18:58N 54°20' E 010°09'0 0.0
2019-Aug-13 18:22N 54°20' E 010°09'0 0.0
2019-Aug-13 17:58N 54°20' E 010°09'0 0.0
2019-Aug-13 17:28N 54°20' E 010°09'0 0.0
2019-Aug-13 16:58N 54°20' E 010°09'0 0.0
2019-Aug-13 16:28N 54°20' E 010°09'0 0.0
2019-Aug-13 15:58N 54°20' E 010°09'0 0.0
2019-Aug-13 15:25N 54°20' E 010°09'0 0.0
2019-Aug-13 14:58N 54°20' E 010°09'0 0.0
2019-Aug-13 14:28N 54°20' E 010°09'0 0.0
2019-Aug-13 13:58N 54°20' E 010°09'0 0.0
2019-Aug-13 13:28N 54°20' E 010°09'0 0.0
2019-Aug-13 12:58N 54°20' E 010°09'0 0.0
2019-Aug-13 12:28N 54°20' E 010°09'0 0.0
2019-Aug-13 11:58N 54°20' E 010°09'0 0.0
2019-Aug-13 11:28N 54°20' E 010°09'0 0.0
2019-Aug-13 10:58N 54°20' E 010°09'0 0.0
2019-Aug-13 10:28N 54°20' E 010°09'0 0.0
2019-Aug-13 09:58N 54°20' E 010°09'0 0.0
2019-Aug-13 09:28N 54°20' E 010°09'0 0.0
2019-Aug-13 08:58N 54°20' E 010°09'0 0.0
2019-Aug-13 08:28N 54°20' E 010°09'0 0.0
2019-Aug-13 07:58N 54°20' E 010°09'0 0.0
2019-Aug-13 07:28N 54°20' E 010°09'0 0.0
2019-Aug-13 06:58N 54°20' E 010°09'0 0.0
2019-Aug-13 06:28N 54°20' E 010°09'0 0.0
2019-Aug-13 05:58N 54°20' E 010°09'0 0.0
2019-Aug-13 05:28N 54°20' E 010°09'0 0.0
2019-Aug-13 04:58N 54°20' E 010°09'0 0.0
2019-Aug-13 04:28N 54°20' E 010°09'0 0.0
2019-Aug-13 03:58N 54°20' E 010°09'0 0.0
2019-Aug-13 03:28N 54°20' E 010°09'0 0.0
2019-Aug-13 03:01N 54°20' E 010°09'0 0.0
2019-Aug-13 01:58N 54°20' E 010°09'0 0.0
2019-Aug-13 01:31N 54°20' E 010°09'0 0.0
2019-Aug-13 00:58N 54°20' E 010°09'0 0.0
2019-Aug-13 00:28N 54°20' E 010°09'0 0.0
2019-Aug-12 23:58N 54°20' E 010°09'0 0.0
2019-Aug-12 23:30N 54°20' E 010°09'0 0.0
2019-Aug-12 23:00N 54°20' E 010°09'0 0.0
2019-Aug-12 22:31N 54°20' E 010°09'0 0.0
2019-Aug-12 22:01N 54°20' E 010°09'0 0.0
2019-Aug-12 21:30N 54°20' E 010°09'0 0.0
2019-Aug-12 21:00N 54°20' E 010°09'0 0.0
2019-Aug-12 20:30N 54°20' E 010°09'0 0.0
2019-Aug-12 20:00N 54°20' E 010°09'0 0.0
2019-Aug-12 19:30N 54°20' E 010°09'0 0.0
2019-Aug-12 19:00N 54°20' E 010°09'0 0.0
2019-Aug-12 18:30N 54°20' E 010°09'0 0.0
2019-Aug-12 18:00N 54°20' E 010°09'0 0.0
2019-Aug-12 17:30N 54°20' E 010°09'0 0.0
2019-Aug-12 17:00N 54°20' E 010°09'0 0.0
2019-Aug-12 16:30N 54°20' E 010°09'0 0.0
2019-Aug-12 16:00N 54°20' E 010°09'0 0.0
2019-Aug-12 15:30N 54°20' E 010°09'0 0.0
2019-Aug-12 15:00N 54°20' E 010°09'0 0.0
2019-Aug-12 14:30N 54°20' E 010°09'0 0.0
2019-Aug-12 14:00N 54°20' E 010°09'0 0.0
2019-Aug-12 13:30N 54°20' E 010°09'0 0.0
2019-Aug-12 13:00N 54°20' E 010°09'0 0.0
2019-Aug-12 12:30N 54°20' E 010°09'0 0.0
2019-Aug-12 12:00N 54°20' E 010°09'0 0.0
2019-Aug-12 11:30N 54°20' E 010°09'0 0.0
2019-Aug-12 11:00N 54°20' E 010°09'0 0.0
2019-Aug-12 10:30N 54°20' E 010°09'0 0.0
2019-Aug-12 10:00N 54°20' E 010°09'  
Track history (hours):
 
Tides and Currents Weather Stations Pressure Air Temp Water Temp Dewpoint Dewpoint Depression Visibility Wind Speed Wind Dir Waves Ship Positions

Oban

Last reported at 2019-Aug-22 09:30 UTC. Time now 2019-Aug-22 09:50 UTC.
Position N 54°40' E 010°17'.

Length 39 m; draft 2.8 m.

Type: Sailing vessel. MMSI: 246085000.

Date/timePositionNaut miles runAvg speedWind from/ knotsBaromVisibWave heightAir tempDewpointWater temp
2019-Aug-22 09:30N 54°40' E 010°17'3 5.4
2019-Aug-22 09:00N 54°41' E 010°21'3 6.0
2019-Aug-22 08:30N 54°43' E 010°26'3 6.0
2019-Aug-22 08:00N 54°44' E 010°30'3 6.0
2019-Aug-22 07:30N 54°45' E 010°35'3 5.5
2019-Aug-22 07:00N 54°45' E 010°40'0 0.5
2019-Aug-22 06:30N 54°45' E 010°40'0 0.0
2019-Aug-22 06:00N 54°45' E 010°40'0 0.0
2019-Aug-22 05:30N 54°45' E 010°40'0 0.0
2019-Aug-22 05:00N 54°45' E 010°40'0 0.0
2019-Aug-22 04:30N 54°45' E 010°40'0 0.0
2019-Aug-22 04:00N 54°45' E 010°40'0 0.0
2019-Aug-22 03:30N 54°45' E 010°40'0 0.0
2019-Aug-22 03:00N 54°45' E 010°40'0 0.0
2019-Aug-22 02:30N 54°45' E 010°40'0 0.0
2019-Aug-22 02:00N 54°45' E 010°40'0 0.0
2019-Aug-22 01:30N 54°45' E 010°40'0 0.0
2019-Aug-22 01:00N 54°45' E 010°40'0 0.0
2019-Aug-22 00:30N 54°45' E 010°40'0 0.0
2019-Aug-22 00:00N 54°45' E 010°40'0 0.0
2019-Aug-21 23:30N 54°45' E 010°40'0 0.0
2019-Aug-21 23:00N 54°45' E 010°40'0 0.0
2019-Aug-21 22:30N 54°45' E 010°40'0 0.0
2019-Aug-21 22:00N 54°45' E 010°40'0 0.0
2019-Aug-21 21:30N 54°45' E 010°40'0 0.0
2019-Aug-21 21:00N 54°45' E 010°40'0 0.0
2019-Aug-21 20:30N 54°45' E 010°40'0 0.0
2019-Aug-21 20:00N 54°45' E 010°40'0 0.0
2019-Aug-21 19:30N 54°45' E 010°40'0 0.0
2019-Aug-21 19:00N 54°45' E 010°40'0 0.0
2019-Aug-21 18:30N 54°45' E 010°40'0 0.0
2019-Aug-21 18:00N 54°45' E 010°40'0 0.0
2019-Aug-21 17:30N 54°45' E 010°40'0 0.0
2019-Aug-21 17:00N 54°45' E 010°40'0 0.0
2019-Aug-21 16:30N 54°45' E 010°40'0 0.0
2019-Aug-21 16:00N 54°45' E 010°40'0 0.0
2019-Aug-21 15:30N 54°45' E 010°40'1 1.4
2019-Aug-21 15:00N 54°45' E 010°39'2 3.3
2019-Aug-21 14:30N 54°44' E 010°40'3 5.2
2019-Aug-21 14:00N 54°41' E 010°42'1 1.7
2019-Aug-21 13:30N 54°41' E 010°43'1 2.6
2019-Aug-21 13:00N 54°42' E 010°41'2 4.5
2019-Aug-21 12:30N 54°43' E 010°39'2 4.0
2019-Aug-21 12:00N 54°45' E 010°37'3 5.1
2019-Aug-21 11:30N 54°47' E 010°35'3 5.4
2019-Aug-21 11:00N 54°50' E 010°33'2 4.1
2019-Aug-21 10:30N 54°51' E 010°31'2 3.8
2019-Aug-21 10:00N 54°53' E 010°34'2 3.1
2019-Aug-21 09:30N 54°54' E 010°33'2 3.6
2019-Aug-21 09:00N 54°55' E 010°30'2 3.3
2019-Aug-21 08:22N 54°57' E 010°28'2 4.4
2019-Aug-21 07:54N 54°55' E 010°26'2 3.5
2019-Aug-21 07:25N 54°53' E 010°25'0 0.0
2019-Aug-21 06:59N 54°53' E 010°25'0 0.0
2019-Aug-21 06:30N 54°53' E 010°25'0 0.0
2019-Aug-21 05:55N 54°53' E 010°25'0 0.0
2019-Aug-21 05:14N 54°53' E 010°25'0 0.0
2019-Aug-21 05:00N 54°53' E 010°25'0 0.0
2019-Aug-21 04:27N 54°53' E 010°25'0 0.0
2019-Aug-21 04:00N 54°53' E 010°25'0 0.0
2019-Aug-21 03:30N 54°53' E 010°25'0 0.0
2019-Aug-21 03:00N 54°53' E 010°25'0 0.0
2019-Aug-21 02:30N 54°53' E 010°25'0 0.0
2019-Aug-21 02:00N 54°53' E 010°25'0 0.0
2019-Aug-21 01:30N 54°53' E 010°25'0 0.0
2019-Aug-21 00:57N 54°53' E 010°25'0 0.0
2019-Aug-21 00:30N 54°53' E 010°25'0 0.0
2019-Aug-20 23:59N 54°53' E 010°25'0 0.0
2019-Aug-20 23:27N 54°53' E 010°25'0 0.0
2019-Aug-20 22:56N 54°53' E 010°25'0 0.0
2019-Aug-20 22:28N 54°53' E 010°25'0 0.0
2019-Aug-20 21:59N 54°53' E 010°25'0 0.0
2019-Aug-20 21:08N 54°53' E 010°25'0 0.0
2019-Aug-20 20:59N 54°53' E 010°25'0 0.0
2019-Aug-20 20:30N 54°53' E 010°25'0 0.0
2019-Aug-20 20:00N 54°53' E 010°25'0 0.0
2019-Aug-20 19:26N 54°53' E 010°25'0 0.0
2019-Aug-20 18:59N 54°53' E 010°25'0 0.0
2019-Aug-20 18:17N 54°53' E 010°25'0 0.0
2019-Aug-20 17:25N 54°53' E 010°25'0 0.0
2019-Aug-20 16:40N 54°53' E 010°25'0 0.0
2019-Aug-20 15:28N 54°53' E 010°25'1 2.3
2019-Aug-20 15:00N 54°55' E 010°25'3 5.5
2019-Aug-20 14:27N 54°56' E 010°21'16 0.6
2019-Aug-19 11:34N 54°46' E 009°59'1 8.9
2019-Aug-19 11:27N 54°45' E 010°00'4 8.1
2019-Aug-19 11:00N 54°42' E 010°03'4 7.5
2019-Aug-19 10:30N 54°38' E 010°04'4 7.7
2019-Aug-19 10:00N 54°35' E 010°06'4 8.5
2019-Aug-19 09:30N 54°31' E 010°09'4 7.8
2019-Aug-19 09:00N 54°28' E 010°13'3 5.6
2019-Aug-19 08:30N 54°25' E 010°13'2 4.8
2019-Aug-19 08:00N 54°23' E 010°11'2 3.5
2019-Aug-19 07:30N 54°21' E 010°10'1 1.7
2019-Aug-19 07:00N 54°20' E 010°09'0 0.0
2019-Aug-19 06:30N 54°20' E 010°09'0 0.0
2019-Aug-19 06:00N 54°20' E 010°09'0 0.0
2019-Aug-19 05:30N 54°20' E 010°09'0 0.0
2019-Aug-19 05:00N 54°20' E 010°09'0 0.0
2019-Aug-19 04:30N 54°20' E 010°09'0 0.0
2019-Aug-19 04:00N 54°20' E 010°09'0 0.0
2019-Aug-19 03:30N 54°20' E 010°09'0 0.0
2019-Aug-19 03:00N 54°20' E 010°09'0 0.0
2019-Aug-19 02:30N 54°20' E 010°09'0 0.0
2019-Aug-19 02:00N 54°20' E 010°09'0 0.0
2019-Aug-19 01:30N 54°20' E 010°09'0 0.0
2019-Aug-19 01:00N 54°20' E 010°09'0 0.0
2019-Aug-19 00:30N 54°20' E 010°09'0 0.0
2019-Aug-19 00:00N 54°20' E 010°09'0 0.0
2019-Aug-18 23:30N 54°20' E 010°09'0 0.0
2019-Aug-18 23:00N 54°20' E 010°09'0 0.0
2019-Aug-18 22:30N 54°20' E 010°09'0 0.0
2019-Aug-18 22:00N 54°20' E 010°09'0 0.0
2019-Aug-18 21:30N 54°20' E 010°09'0 0.0
2019-Aug-18 21:00N 54°20' E 010°09'0 0.0
2019-Aug-18 20:30N 54°20' E 010°09'0 0.0
2019-Aug-18 20:00N 54°20' E 010°09'0 0.0
2019-Aug-18 19:30N 54°20' E 010°09'0 0.0
2019-Aug-18 19:00N 54°20' E 010°09'0 0.0
2019-Aug-18 18:30N 54°20' E 010°09'0 0.0
2019-Aug-18 18:00N 54°20' E 010°09'0 0.0
2019-Aug-18 17:30N 54°20' E 010°09'0 0.0
2019-Aug-18 17:00N 54°20' E 010°09'0 0.0
2019-Aug-18 16:30N 54°20' E 010°09'0 0.0
2019-Aug-18 16:00N 54°20' E 010°09'0 0.0
2019-Aug-18 15:30N 54°20' E 010°09'0 0.0
2019-Aug-18 15:00N 54°20' E 010°09'0 0.0
2019-Aug-18 14:30N 54°20' E 010°09'0 0.0
2019-Aug-18 14:00N 54°20' E 010°09'0 0.0
2019-Aug-18 13:30N 54°20' E 010°09'0 0.0
2019-Aug-18 13:00N 54°20' E 010°09'2 4.6
2019-Aug-18 12:30N 54°22' E 010°11'1 2.8
2019-Aug-18 12:00N 54°24' E 010°12'2 3.6
2019-Aug-18 11:30N 54°25' E 010°13'2 4.3
2019-Aug-18 11:00N 54°28' E 010°13'2 4.8
2019-Aug-18 10:30N 54°30' E 010°12'2 4.2
2019-Aug-18 10:00N 54°32' E 010°10'2 3.5
2019-Aug-18 09:30N 54°33' E 010°08'2 4.2
2019-Aug-18 09:00N 54°34' E 010°05'2 3.7
2019-Aug-18 08:30N 54°36' E 010°03'2 4.7
2019-Aug-18 08:00N 54°38' E 010°03'4 4.1
2019-Aug-18 07:00N 54°41' E 009°57'1 2.2
2019-Aug-18 06:29N 54°39' E 009°56'0 0.0
2019-Aug-18 06:00N 54°40' E 009°56'0 0.0
2019-Aug-18 05:30N 54°40' E 009°56'0 0.0
2019-Aug-18 05:00N 54°39' E 009°56'0 0.0
2019-Aug-18 04:30N 54°40' E 009°56'0 0.0
2019-Aug-18 04:00N 54°40' E 009°56'0 0.0
2019-Aug-18 03:29N 54°40' E 009°56'0 0.0
2019-Aug-18 03:00N 54°40' E 009°56'0 0.0
2019-Aug-18 02:30N 54°39' E 009°56'0 0.0
2019-Aug-18 02:00N 54°39' E 009°56'0 0.0
2019-Aug-18 01:30N 54°39' E 009°56'0 0.0
2019-Aug-18 01:00N 54°40' E 009°56'0 0.0
2019-Aug-18 00:30N 54°40' E 009°56'0 0.0
2019-Aug-18 00:00N 54°39' E 009°56'0 0.0
2019-Aug-17 23:30N 54°40' E 009°56'0 0.0
2019-Aug-17 23:00N 54°39' E 009°56'0 0.0
2019-Aug-17 22:30N 54°39' E 009°56'0 0.0
2019-Aug-17 22:00N 54°40' E 009°56'0 0.0
2019-Aug-17 21:30N 54°39' E 009°56'0 0.0
2019-Aug-17 21:00N 54°39' E 009°56'0 0.0
2019-Aug-17 20:29N 54°40' E 009°56'0 0.0
2019-Aug-17 20:00N 54°40' E 009°56'0 0.0
2019-Aug-17 19:30N 54°40' E 009°56'0 0.0
2019-Aug-17 19:00N 54°39' E 009°56'0 0.0
2019-Aug-17 18:30N 54°40' E 009°56'0 0.0
2019-Aug-17 17:29N 54°39' E 009°56'0 0.0
2019-Aug-17 16:59N 54°40' E 009°56'0 0.0
2019-Aug-17 16:30N 54°39' E 009°56'0 0.0
2019-Aug-17 15:59N 54°40' E 009°56'0 0.0
2019-Aug-17 15:28N 54°40' E 009°56'0 0.0
2019-Aug-17 14:57N 54°40' E 009°56'0 0.0
2019-Aug-17 14:30N 54°40' E 009°56'0 0.0
2019-Aug-17 14:00N 54°39' E 009°56'1 2.0
2019-Aug-17 13:30N 54°40' E 009°57'3 5.2
2019-Aug-17 12:56N 54°40' E 010°02'2 4.9
2019-Aug-17 12:30N 54°42' E 010°05'2 4.2
2019-Aug-17 12:00N 54°43' E 010°06'3 4.8
2019-Aug-17 11:20N 54°46' E 010°02'1 1.5
2019-Aug-17 10:44N 54°46' E 010°04'5 5.9
2019-Aug-17 09:53N 54°47' E 010°12'3 6.6
2019-Aug-17 09:30N 54°47' E 010°17'3 6.7
2019-Aug-17 09:00N 54°47' E 010°22'3 6.2
2019-Aug-17 08:30N 54°49' E 010°27'3 6.7
2019-Aug-17 08:00N 54°50' E 010°32'1 2.8
2019-Aug-17 07:30N 54°51' E 010°31'0 0.0
2019-Aug-17 07:00N 54°51' E 010°31'0 0.0
2019-Aug-17 06:30N 54°51' E 010°31'0 0.0
2019-Aug-17 06:00N 54°51' E 010°31'0 0.0
2019-Aug-17 05:30N 54°51' E 010°31'0 0.0
2019-Aug-17 05:00N 54°51' E 010°31'0 0.0
2019-Aug-17 04:29N 54°51' E 010°31'0 0.0
2019-Aug-17 04:00N 54°51' E 010°31'0 0.0
2019-Aug-17 03:30N 54°51' E 010°31'0 0.0
2019-Aug-17 03:00N 54°51' E 010°31'0 0.0
2019-Aug-17 02:30N 54°51' E 010°31'0 0.0
2019-Aug-17 02:00N 54°51' E 010°31'0 0.0
2019-Aug-17 01:30N 54°51' E 010°31'0 0.0
2019-Aug-17 01:00N 54°51' E 010°31'0 0.0
2019-Aug-17 00:30N 54°51' E 010°31'0 0.0
2019-Aug-17 00:00N 54°51' E 010°31'0 0.0
2019-Aug-16 23:30N 54°51' E 010°31'0 0.0
2019-Aug-16 23:00N 54°51' E 010°31'0 0.0
2019-Aug-16 22:30N 54°51' E 010°31'0 0.0
2019-Aug-16 22:00N 54°51' E 010°31'0 0.0
2019-Aug-16 21:30N 54°51' E 010°31'0 0.0
2019-Aug-16 21:00N 54°51' E 010°31'0 0.0
2019-Aug-16 20:30N 54°51' E 010°31'0 0.0
2019-Aug-16 20:00N 54°51' E 010°31'0 0.0
2019-Aug-16 19:30N 54°51' E 010°31'0 0.0
2019-Aug-16 19:00N 54°51' E 010°31'0 0.0
2019-Aug-16 18:30N 54°51' E 010°31'0 0.0
2019-Aug-16 18:00N 54°51' E 010°31'0 0.0
2019-Aug-16 17:30N 54°51' E 010°31'0 0.0
2019-Aug-16 17:00N 54°51' E 010°31'0 0.0
2019-Aug-16 16:30N 54°51' E 010°31'0 0.0
2019-Aug-16 16:00N 54°51' E 010°31'0 0.0
2019-Aug-16 15:30N 54°51' E 010°31'0 0.0
2019-Aug-16 15:00N 54°51' E 010°31'0 0.0
2019-Aug-16 14:30N 54°51' E 010°31'0 0.0
2019-Aug-16 14:00N 54°51' E 010°31'1 2.0
2019-Aug-16 13:30N 54°52' E 010°32'2 3.4
2019-Aug-16 12:59N 54°54' E 010°32'3 6.6
2019-Aug-16 12:29N 54°56' E 010°29'2 4.8
2019-Aug-16 12:00N 54°57' E 010°24'2 3.9
2019-Aug-16 11:30N 54°56' E 010°21'4 4.3
2019-Aug-16 10:37N 54°59' E 010°17'14 0.7
2019-Aug-15 13:36N 54°46' E 010°07'1 6.0
2019-Aug-15 13:30N 54°46' E 010°07'3 6.0
2019-Aug-15 12:59N 54°43' E 010°10'3 5.9
2019-Aug-15 12:30N 54°40' E 010°11'3 6.8
2019-Aug-15 12:00N 54°37' E 010°13'4 7.0
2019-Aug-15 11:29N 54°34' E 010°16'3 7.1
2019-Aug-15 11:00N 54°31' E 010°19'3 5.2
2019-Aug-15 10:30N 54°28' E 010°17'3 5.8
2019-Aug-15 10:00N 54°26' E 010°14'2 4.6
2019-Aug-15 09:30N 54°24' E 010°12'2 3.5
2019-Aug-15 09:00N 54°22' E 010°11'2 3.3
2019-Aug-15 08:30N 54°21' E 010°10'1 1.4
2019-Aug-15 07:56N 54°20' E 010°09'0 0.0
2019-Aug-15 07:23N 54°20' E 010°09'0 0.0
2019-Aug-15 06:53N 54°20' E 010°09'0 0.0
2019-Aug-15 06:26N 54°20' E 010°09'0 0.0
2019-Aug-15 05:56N 54°20' E 010°09'0 0.0
2019-Aug-15 05:26N 54°20' E 010°09'0 0.0
2019-Aug-15 04:59N 54°20' E 010°09'0 0.0
2019-Aug-15 04:29N 54°20' E 010°09'0 0.0
2019-Aug-15 03:59N 54°20' E 010°09'0 0.0
2019-Aug-15 03:26N 54°20' E 010°09'0 0.0
2019-Aug-15 02:59N 54°20' E 010°09'0 0.0
2019-Aug-15 02:29N 54°20' E 010°09'0 0.0
2019-Aug-15 01:59N 54°20' E 010°09'0 0.0
2019-Aug-15 01:29N 54°20' E 010°09'0 0.0
2019-Aug-15 00:59N 54°20' E 010°09'0 0.0
2019-Aug-15 00:29N 54°20' E 010°09'0 0.0
2019-Aug-14 23:59N 54°20' E 010°09'0 0.0
2019-Aug-14 23:29N 54°20' E 010°09'0 0.0
2019-Aug-14 22:59N 54°20' E 010°09'0 0.0
2019-Aug-14 22:29N 54°20' E 010°09'0 0.0
2019-Aug-14 21:59N 54°20' E 010°09'0 0.0
2019-Aug-14 21:29N 54°20' E 010°09'0 0.0
2019-Aug-14 20:59N 54°20' E 010°09'0 0.0
2019-Aug-14 20:29N 54°20' E 010°09'0 0.0
2019-Aug-14 19:59N 54°20' E 010°09'0 0.0
2019-Aug-14 19:29N 54°20' E 010°09'0 0.0
2019-Aug-14 18:59N 54°20' E 010°09'0 0.0
2019-Aug-14 18:26N 54°20' E 010°09'0 0.0
2019-Aug-14 17:59N 54°20' E 010°09'0 0.0
2019-Aug-14 17:28N 54°20' E 010°09'0 0.0
2019-Aug-14 16:58N 54°20' E 010°09'0 0.0
2019-Aug-14 16:28N 54°20' E 010°09'0 0.0
2019-Aug-14 15:58N 54°20' E 010°09'0 0.0
2019-Aug-14 15:28N 54°20' E 010°09'0 0.0
2019-Aug-14 14:58N 54°20' E 010°09'0 0.0
2019-Aug-14 14:28N 54°20' E 010°09'0 0.0
2019-Aug-14 13:58N 54°20' E 010°09'0 0.0
2019-Aug-14 13:25N 54°20' E 010°09'0 0.0
2019-Aug-14 12:58N 54°20' E 010°09'0 0.0
2019-Aug-14 12:28N 54°20' E 010°09'0 0.0
2019-Aug-14 11:58N 54°20' E 010°09'0 0.0
2019-Aug-14 11:28N 54°20' E 010°09'0 0.0
2019-Aug-14 10:58N 54°20' E 010°09'0 0.0
2019-Aug-14 10:28N 54°20' E 010°09'0 0.0
2019-Aug-14 09:58N 54°20' E 010°09'0 0.0
2019-Aug-14 09:28N 54°20' E 010°09'0 0.0
2019-Aug-14 08:58N 54°20' E 010°09'0 0.0
2019-Aug-14 08:28N 54°20' E 010°09'0 0.0
2019-Aug-14 07:58N 54°20' E 010°09'0 0.0
2019-Aug-14 07:28N 54°20' E 010°09'0 0.0
2019-Aug-14 06:58N 54°20' E 010°09'0 0.0
2019-Aug-14 06:28N 54°20' E 010°09'0 0.0
2019-Aug-14 05:58N 54°20' E 010°09'0 0.0
2019-Aug-14 05:28N 54°20' E 010°09'0 0.0
2019-Aug-14 04:58N 54°20' E 010°09'0 0.0
2019-Aug-14 04:28N 54°20' E 010°09'0 0.0
2019-Aug-14 03:58N 54°20' E 010°09'0 0.0
2019-Aug-14 03:28N 54°20' E 010°09'0 0.0
2019-Aug-14 02:58N 54°20' E 010°09'0 0.0
2019-Aug-14 02:28N 54°20' E 010°09'0 0.0
2019-Aug-14 01:58N 54°20' E 010°09'0 0.0
2019-Aug-14 01:28N 54°20' E 010°09'0 0.0
2019-Aug-14 00:58N 54°20' E 010°09'0 0.0
2019-Aug-14 00:28N 54°20' E 010°09'0 0.0
2019-Aug-13 23:58N 54°20' E 010°09'0 0.0
2019-Aug-13 23:28N 54°20' E 010°09'0 0.0
2019-Aug-13 22:58N 54°20' E 010°09'0 0.0
2019-Aug-13 22:28N 54°20' E 010°09'0 0.0
2019-Aug-13 21:58N 54°20' E 010°09'0 0.0
2019-Aug-13 21:28N 54°20' E 010°09'0 0.0
2019-Aug-13 20:58N 54°20' E 010°09'0 0.0
2019-Aug-13 20:28N 54°20' E 010°09'0 0.0
2019-Aug-13 19:58N 54°20' E 010°09'0 0.0
2019-Aug-13 19:25N 54°20' E 010°09'0 0.0
2019-Aug-13 18:58N 54°20' E 010°09'0 0.0
2019-Aug-13 18:22N 54°20' E 010°09'0 0.0
2019-Aug-13 17:58N 54°20' E 010°09'0 0.0
2019-Aug-13 17:28N 54°20' E 010°09'0 0.0
2019-Aug-13 16:58N 54°20' E 010°09'0 0.0
2019-Aug-13 16:28N 54°20' E 010°09'0 0.0
2019-Aug-13 15:58N 54°20' E 010°09'0 0.0
2019-Aug-13 15:25N 54°20' E 010°09'0 0.0
2019-Aug-13 14:58N 54°20' E 010°09'0 0.0
2019-Aug-13 14:28N 54°20' E 010°09'0 0.0
2019-Aug-13 13:58N 54°20' E 010°09'0 0.0
2019-Aug-13 13:28N 54°20' E 010°09'0 0.0
2019-Aug-13 12:58N 54°20' E 010°09'0 0.0
2019-Aug-13 12:28N 54°20' E 010°09'0 0.0
2019-Aug-13 11:58N 54°20' E 010°09'0 0.0
2019-Aug-13 11:28N 54°20' E 010°09'0 0.0
2019-Aug-13 10:58N 54°20' E 010°09'0 0.0
2019-Aug-13 10:28N 54°20' E 010°09'0 0.0
2019-Aug-13 09:58N 54°20' E 010°09'0 0.0
2019-Aug-13 09:28N 54°20' E 010°09'0 0.0
2019-Aug-13 08:58N 54°20' E 010°09'0 0.0
2019-Aug-13 08:28N 54°20' E 010°09'0 0.0
2019-Aug-13 07:58N 54°20' E 010°09'0 0.0
2019-Aug-13 07:28N 54°20' E 010°09'0 0.0
2019-Aug-13 06:58N 54°20' E 010°09'0 0.0
2019-Aug-13 06:28N 54°20' E 010°09'0 0.0
2019-Aug-13 05:58N 54°20' E 010°09'0 0.0
2019-Aug-13 05:28N 54°20' E 010°09'0 0.0
2019-Aug-13 04:58N 54°20' E 010°09'0 0.0
2019-Aug-13 04:28N 54°20' E 010°09'0 0.0
2019-Aug-13 03:58N 54°20' E 010°09'0 0.0
2019-Aug-13 03:28N 54°20' E 010°09'0 0.0
2019-Aug-13 03:01N 54°20' E 010°09'0 0.0
2019-Aug-13 01:58N 54°20' E 010°09'0 0.0
2019-Aug-13 01:31N 54°20' E 010°09'0 0.0
2019-Aug-13 00:58N 54°20' E 010°09'0 0.0
2019-Aug-13 00:28N 54°20' E 010°09'0 0.0
2019-Aug-12 23:58N 54°20' E 010°09'0 0.0
2019-Aug-12 23:30N 54°20' E 010°09'0 0.0
2019-Aug-12 23:00N 54°20' E 010°09'0 0.0
2019-Aug-12 22:31N 54°20' E 010°09'0 0.0
2019-Aug-12 22:01N 54°20' E 010°09'0 0.0
2019-Aug-12 21:30N 54°20' E 010°09'0 0.0
2019-Aug-12 21:00N 54°20' E 010°09'0 0.0
2019-Aug-12 20:30N 54°20' E 010°09'0 0.0
2019-Aug-12 20:00N 54°20' E 010°09'0 0.0
2019-Aug-12 19:30N 54°20' E 010°09'0 0.0
2019-Aug-12 19:00N 54°20' E 010°09'0 0.0
2019-Aug-12 18:30N 54°20' E 010°09'0 0.0
2019-Aug-12 18:00N 54°20' E 010°09'0 0.0
2019-Aug-12 17:30N 54°20' E 010°09'0 0.0
2019-Aug-12 17:00N 54°20' E 010°09'0 0.0
2019-Aug-12 16:30N 54°20' E 010°09'0 0.0
2019-Aug-12 16:00N 54°20' E 010°09'0 0.0
2019-Aug-12 15:30N 54°20' E 010°09'0 0.0
2019-Aug-12 15:00N 54°20' E 010°09'0 0.0
2019-Aug-12 14:30N 54°20' E 010°09'0 0.0
2019-Aug-12 14:00N 54°20' E 010°09'0 0.0
2019-Aug-12 13:30N 54°20' E 010°09'0 0.0
2019-Aug-12 13:00N 54°20' E 010°09'0 0.0
2019-Aug-12 12:30N 54°20' E 010°09'0 0.0
2019-Aug-12 12:00N 54°20' E 010°09'0 0.0
2019-Aug-12 11:30N 54°20' E 010°09'0 0.0
2019-Aug-12 11:00N 54°20' E 010°09'0 0.0
2019-Aug-12 10:30N 54°20' E 010°09'0 0.0
2019-Aug-12 10:00N 54°20' E 010°09'  

Dump ship's entire track history